createdAt,value
2022-09-27T00:01:07.960Z,93948.34
2022-09-27T00:03:35.916Z,93942.41
2022-09-27T00:06:06.190Z,93937.19
2022-09-27T00:08:34.808Z,93939.75
2022-09-27T00:11:04.171Z,93931.63
2022-09-27T00:13:33.319Z,93934.53
2022-09-27T00:16:03.261Z,93927.69
2022-09-27T00:26:14.505Z,93918.84
2022-09-27T00:28:41.362Z,93927.97
2022-09-27T00:31:17.505Z,93926.63
2022-09-27T00:33:43.969Z,93930.81
2022-09-27T00:36:10.354Z,93925.59
2022-09-27T00:38:36.718Z,93920.38
2022-09-27T00:41:03.150Z,93913.03
2022-09-27T00:47:18.274Z,93910.22
2022-09-27T00:49:51.297Z,93905.16
2022-09-27T00:52:23.690Z,93906.31
2022-09-27T00:54:52.936Z,93910.22
2022-09-27T00:57:21.084Z,93899.94
2022-09-27T00:59:52.084Z,93907.63
2022-09-27T01:02:19.331Z,93909.31
2022-09-27T01:12:42.109Z,93899.59
2022-09-27T01:15:19.771Z,93894.53
2022-09-27T01:17:59.940Z,93886.59
2022-09-27T01:21:07.986Z,93890.41
2022-09-27T01:23:57.664Z,93888.16
2022-09-27T01:26:35.284Z,93888.03
2022-09-27T01:29:10.833Z,93884.63
2022-09-27T01:39:17.209Z,93868.75
2022-09-27T01:41:52.876Z,93861.13
2022-09-27T01:44:28.253Z,93867.31
2022-09-27T01:46:58.236Z,93868.50
2022-09-27T01:49:40.948Z,93869.75
2022-09-27T01:52:10.841Z,93872.97
2022-09-27T01:54:43.635Z,93873.97
2022-09-27T02:04:41.841Z,93859.09
2022-09-27T02:07:13.678Z,93853.63
2022-09-27T02:09:46.367Z,93855.16
2022-09-27T02:12:15.727Z,93851.78
2022-09-27T02:14:47.182Z,93850.78
2022-09-27T02:17:22.954Z,93848.03
2022-09-27T02:19:56.949Z,93853.94
2022-09-27T02:25:55.036Z,93853.59
2022-09-27T02:28:27.882Z,93854.38
2022-09-27T02:30:55.059Z,93856.44
2022-09-27T02:33:26.137Z,93841.59
2022-09-27T02:35:52.490Z,93840.09
2022-09-27T02:38:19.728Z,93847.78
2022-09-27T02:40:47.646Z,93848.44
2022-09-27T02:43:17.876Z,93831.88
2022-09-27T02:51:05.370Z,93831.66
2022-09-27T02:53:42.614Z,93837.63
2022-09-27T02:56:15.677Z,93814.72
2022-09-27T02:58:57.896Z,93813.69
2022-09-27T03:01:31.592Z,93822.97
2022-09-27T03:04:04.210Z,93813.69
2022-09-27T03:06:34.694Z,93802.94
2022-09-27T03:09:02.408Z,93797.28
2022-09-27T03:11:30.124Z,93804.25
2022-09-27T03:14:08.494Z,93805.91
2022-09-27T03:16:37.031Z,93803.50
2022-09-27T03:19:04.822Z,93798.94
2022-09-27T03:21:33.918Z,93795.88
2022-09-27T03:24:01.970Z,93789.03
2022-09-27T03:26:29.855Z,93791.03
2022-09-27T03:28:57.602Z,93792.81
2022-09-27T03:31:25.439Z,93784.69
2022-09-27T03:33:53.556Z,93782.72
2022-09-27T03:36:21.232Z,93785.59
2022-09-27T03:38:50.314Z,93774.75
2022-09-27T03:41:17.998Z,93770.75
2022-09-27T03:43:45.691Z,93767.97
2022-09-27T03:46:13.431Z,93771.69
2022-09-27T03:48:42.545Z,93773.63
2022-09-27T03:51:12.156Z,93768.47
2022-09-27T03:53:39.938Z,93762.75
2022-09-27T03:56:09.121Z,93764.34
2022-09-27T03:58:36.850Z,93750.69
2022-09-27T04:01:04.972Z,93764.66
2022-09-27T04:03:32.745Z,93765.16
2022-09-27T04:06:00.861Z,93766.81
2022-09-27T04:08:30.085Z,93769.72
2022-09-27T04:18:54.964Z,93755.22
2022-09-27T04:21:21.822Z,93765.78
2022-09-27T04:23:48.148Z,93764.00
2022-09-27T04:26:14.477Z,93770.19
2022-09-27T04:28:40.749Z,93757.38
2022-09-27T04:31:07.143Z,93757.88
2022-09-27T04:33:33.659Z,93773.78
2022-09-27T04:42:52.232Z,93775.50
2022-09-27T04:45:19.290Z,93772.72
2022-09-27T04:47:46.705Z,93773.63
2022-09-27T04:50:13.974Z,93773.34
2022-09-27T04:52:40.457Z,93767.53
2022-09-27T04:55:08.444Z,93775.00
2022-09-27T04:57:34.792Z,93785.72
2022-09-27T05:00:02.626Z,93784.63
2022-09-27T05:07:34.052Z,93788.44
2022-09-27T05:10:00.378Z,93790.41
2022-09-27T05:12:26.725Z,93789.31
2022-09-27T05:14:53.924Z,93794.53
2022-09-27T05:17:21.607Z,93793.56
2022-09-27T05:19:48.202Z,93802.00
2022-09-27T05:22:14.863Z,93802.19
2022-09-27T05:24:42.171Z,93801.19
2022-09-27T05:32:11.660Z,93814.25
2022-09-27T05:34:37.996Z,93813.75
2022-09-27T05:37:04.724Z,93821.09
2022-09-27T05:39:31.062Z,93824.19
2022-09-27T05:41:57.453Z,93812.69
2022-09-27T05:44:25.217Z,93820.81
2022-09-27T05:46:51.595Z,93823.06
2022-09-27T05:49:19.582Z,93827.28
2022-09-27T05:56:48.959Z,93833.94
2022-09-27T05:59:15.242Z,93832.63
2022-09-27T06:01:41.651Z,93824.38
2022-09-27T06:04:08.052Z,93832.16
2022-09-27T06:06:36.205Z,93833.31
2022-09-27T06:09:02.951Z,93843.34
2022-09-27T06:11:29.640Z,93827.47
2022-09-27T06:13:57.488Z,93847.59
2022-09-27T06:23:54.509Z,93868.22
2022-09-27T06:26:21.254Z,93866.13
2022-09-27T06:28:47.642Z,93866.94
2022-09-27T06:31:14.760Z,93864.31
2022-09-27T06:33:41.106Z,93873.91
2022-09-27T06:36:08.400Z,93880.25
2022-09-27T06:38:34.968Z,93877.00
2022-09-27T06:48:47.382Z,93887.84
2022-09-27T06:51:13.686Z,93893.19
2022-09-27T06:53:40.278Z,93891.56
2022-09-27T06:56:06.616Z,93877.94
2022-09-27T06:58:51.131Z,93886.09
2022-09-27T07:01:17.450Z,93885.25
2022-09-27T07:03:43.798Z,93901.69
2022-09-27T07:06:18.517Z,93917.72
2022-09-27T07:13:50.011Z,93926.84
2022-09-27T07:16:16.471Z,93912.91
2022-09-27T07:18:42.987Z,93908.19
2022-09-27T07:21:09.853Z,93910.28
2022-09-27T07:23:38.077Z,93913.53
2022-09-27T07:26:08.414Z,93913.84
2022-09-27T07:28:36.282Z,93905.72
2022-09-27T07:31:05.827Z,93906.69
2022-09-27T07:33:33.984Z,93916.78
2022-09-27T07:36:02.264Z,93920.84
2022-09-27T07:38:29.980Z,93917.41
2022-09-27T07:40:58.005Z,93923.47
2022-09-27T07:43:25.809Z,93916.28
2022-09-27T07:45:53.532Z,93922.94
2022-09-27T07:48:22.624Z,93926.19
2022-09-27T07:50:50.417Z,93913.69
2022-09-27T07:53:18.290Z,93924.56
2022-09-27T07:55:51.007Z,93928.78
2022-09-27T07:58:18.762Z,93907.19
2022-09-27T08:00:46.566Z,93915.31
2022-09-27T08:03:16.145Z,93920.03
2022-09-27T08:05:47.180Z,93942.13
2022-09-27T08:08:14.994Z,93930.91
2022-09-27T08:10:44.157Z,93952.34
2022-09-27T08:13:12.606Z,93979.66
2022-09-27T08:15:40.292Z,93979.78
2022-09-27T08:18:09.441Z,93984.19
2022-09-27T08:20:37.164Z,94009.00
2022-09-27T08:23:06.518Z,94008.72
2022-09-27T08:25:34.240Z,94000.69
2022-09-27T08:28:04.315Z,93999.75
2022-09-27T08:30:32.981Z,94003.44
2022-09-27T08:33:02.559Z,94000.03
2022-09-27T08:35:33.298Z,94015.59
2022-09-27T08:38:02.326Z,94017.22
2022-09-27T08:40:43.435Z,94031.19
2022-09-27T08:43:21.957Z,94018.84
2022-09-27T08:46:04.595Z,94008.72
2022-09-27T08:48:33.438Z,94012.19
2022-09-27T08:51:05.924Z,94017.44
2022-09-27T08:53:39.097Z,94017.84
2022-09-27T08:56:10.537Z,93999.81
2022-09-27T08:58:42.694Z,94007.22
2022-09-27T09:01:15.697Z,94018.47
2022-09-27T09:03:49.929Z,94021.44
2022-09-27T09:06:23.421Z,94015.44
2022-09-27T09:09:04.184Z,94015.41
2022-09-27T09:12:02.233Z,94031.94
2022-09-27T09:14:57.855Z,94036.97
2022-09-27T09:17:39.220Z,94009.44
2022-09-27T09:20:22.946Z,94032.81
2022-09-27T09:23:10.819Z,94018.22
2022-09-27T09:25:48.669Z,94015.03
2022-09-27T09:28:32.396Z,94017.66
2022-09-27T09:31:09.220Z,94018.94
2022-09-27T09:33:42.362Z,94016.16
2022-09-27T09:36:20.615Z,94006.28
2022-09-27T09:38:53.661Z,94026.56
2022-09-27T09:41:27.746Z,94026.28
2022-09-27T09:44:02.874Z,94025.81
2022-09-27T09:46:40.147Z,94024.38
2022-09-27T09:49:19.477Z,94026.63
2022-09-27T09:51:52.278Z,94028.25
2022-09-27T09:54:26.971Z,94024.03
2022-09-27T09:57:04.367Z,94034.13
2022-09-27T09:59:39.426Z,94036.47
2022-09-27T10:02:31.235Z,94044.91
2022-09-27T10:05:01.727Z,94036.47
2022-09-27T10:07:33.613Z,94031.94
2022-09-27T10:10:03.426Z,94040.59
2022-09-27T10:12:31.300Z,94038.13
2022-09-27T10:15:03.562Z,94058.13
2022-09-27T10:17:41.286Z,94049.75
2022-09-27T10:20:18.855Z,94044.09
2022-09-27T10:22:54.394Z,94054.63
2022-09-27T10:25:49.914Z,94054.53
2022-09-27T10:28:37.282Z,94057.31
2022-09-27T10:31:08.668Z,94062.16
2022-09-27T10:33:40.460Z,94063.72
2022-09-27T10:36:24.962Z,94070.69
2022-09-27T10:38:54.753Z,94083.28
2022-09-27T10:41:27.681Z,94084.75
2022-09-27T10:43:55.380Z,94081.72
2022-09-27T10:46:28.316Z,94076.78
2022-09-27T10:49:19.475Z,94087.50
2022-09-27T10:51:51.725Z,94087.13
2022-09-27T10:54:22.769Z,94076.22
2022-09-27T10:56:57.992Z,94065.34
2022-09-27T10:59:26.982Z,94072.75
2022-09-27T11:02:02.774Z,94071.19
2022-09-27T11:04:32.840Z,94078.72
2022-09-27T11:07:15.277Z,94070.84
2022-09-27T11:09:48.734Z,94067.34
2022-09-27T11:12:20.424Z,94068.91
2022-09-27T11:15:00.092Z,94069.59
2022-09-27T11:20:43.014Z,94058.72
2022-09-27T11:23:33.556Z,94054.03
2022-09-27T11:26:16.084Z,94064.44
2022-09-27T11:28:57.163Z,94057.41
2022-09-27T11:32:11.826Z,94064.84
2022-09-27T11:35:05.093Z,94070.53
2022-09-27T11:37:50.608Z,94069.66
2022-09-27T11:40:33.820Z,94068.00
2022-09-27T11:43:35.218Z,94070.31
2022-09-27T11:46:25.348Z,94064.75
2022-09-27T11:49:23.897Z,94068.69
2022-09-27T11:52:13.764Z,94061.19
2022-09-27T11:54:55.907Z,94071.41
2022-09-27T11:57:28.834Z,94043.66
2022-09-27T12:00:27.555Z,94044.63
2022-09-27T12:03:39.045Z,94053.91
2022-09-27T12:06:12.998Z,94046.09
2022-09-27T12:09:06.276Z,94044.16
2022-09-27T12:11:45.654Z,94042.13
2022-09-27T12:14:26.697Z,94042.47
2022-09-27T12:16:58.935Z,94052.50
2022-09-27T12:19:29.985Z,94072.34
2022-09-27T12:22:02.430Z,94068.69
2022-09-27T12:24:34.063Z,94067.00
2022-09-27T12:27:09.666Z,94050.19
2022-09-27T12:29:44.503Z,94056.38
2022-09-27T12:32:21.115Z,94050.28
2022-09-27T12:34:57.369Z,94051.31
2022-09-27T12:37:29.112Z,94048.31
2022-09-27T12:40:06.778Z,94036.84
2022-09-27T12:45:14.729Z,94046.19
2022-09-27T12:48:05.842Z,94041.19
2022-09-27T12:50:39.006Z,94027.56
2022-09-27T12:53:22.592Z,94025.94
2022-09-27T12:56:18.944Z,94028.22
2022-09-27T12:59:12.017Z,94029.38
2022-09-27T13:01:57.439Z,94018.78
2022-09-27T13:04:55.074Z,94030.19
2022-09-27T13:07:36.184Z,94011.97
2022-09-27T13:10:41.282Z,94024.66
2022-09-27T13:13:21.094Z,94024.16
2022-09-27T13:15:51.762Z,94018.97
2022-09-27T13:18:35.038Z,94017.81
2022-09-27T13:21:07.304Z,94015.72
2022-09-27T13:24:04.416Z,94020.03
2022-09-27T13:26:51.505Z,93990.34
2022-09-27T13:29:30.719Z,94022.38
2022-09-27T13:32:18.536Z,94018.66
2022-09-27T13:34:51.934Z,94017.84
2022-09-27T13:38:02.973Z,94021.25
2022-09-27T13:40:34.064Z,94010.66
2022-09-27T13:43:31.489Z,94024.97
2022-09-27T13:46:08.752Z,94035.38
2022-09-27T13:48:50.068Z,94024.63
2022-09-27T13:51:32.385Z,94018.81
2022-09-27T13:54:06.655Z,94021.88
2022-09-27T13:56:59.005Z,94063.03
2022-09-27T13:59:50.427Z,94022.06
2022-09-27T14:02:27.074Z,94012.94
2022-09-27T14:04:58.383Z,94031.97
2022-09-27T14:07:37.668Z,94038.31
2022-09-27T14:13:36.417Z,94039.09
2022-09-27T14:16:06.336Z,94030.81
2022-09-27T14:18:50.772Z,94038.13
2022-09-27T14:22:44.229Z,94047.72
2022-09-27T14:25:27.440Z,94048.19
2022-09-27T14:28:00.199Z,94067.41
2022-09-27T14:36:11.033Z,94063.56
2022-09-27T14:43:10.088Z,94058.16
2022-09-27T14:45:40.462Z,94059.03
2022-09-27T14:48:25.312Z,94065.78
2022-09-27T14:51:05.046Z,94056.34
2022-09-27T14:53:37.102Z,94061.38
2022-09-27T14:56:08.009Z,94066.91
2022-09-27T14:58:54.079Z,94060.75
2022-09-27T15:01:21.833Z,94062.88
2022-09-27T15:03:50.001Z,94061.56
2022-09-27T15:06:20.256Z,94058.13
2022-09-27T15:08:49.555Z,94068.88
2022-09-27T15:11:19.142Z,94071.78
2022-09-27T15:13:51.621Z,94053.44
2022-09-27T15:16:23.606Z,94060.25
2022-09-27T15:19:03.280Z,94051.16
2022-09-27T15:21:37.224Z,94046.91
2022-09-27T15:24:06.092Z,94050.50
2022-09-27T15:26:41.269Z,94053.41
2022-09-27T15:29:19.707Z,94047.88
2022-09-27T15:31:48.393Z,94054.69
2022-09-27T15:34:20.344Z,94045.28
2022-09-27T15:36:55.321Z,94042.88
2022-09-27T15:39:29.522Z,94030.03
2022-09-27T15:42:17.513Z,94034.38
2022-09-27T15:44:47.960Z,94034.53
2022-09-27T15:47:41.287Z,94030.25
2022-09-27T15:50:37.463Z,94026.53
2022-09-27T15:53:06.919Z,94017.09
2022-09-27T15:55:37.367Z,94029.19
2022-09-27T15:58:08.208Z,94018.31
2022-09-27T16:03:56.108Z,94042.84
2022-09-27T16:06:27.244Z,94046.75
2022-09-27T16:08:56.242Z,94050.19
2022-09-27T16:11:23.932Z,94032.78
2022-09-27T16:15:16.909Z,94089.25
2022-09-27T16:18:33.785Z,94073.81
2022-09-27T16:21:01.576Z,94081.28
2022-09-27T16:23:34.890Z,94072.53
2022-09-27T16:26:05.227Z,94074.94
2022-09-27T16:28:32.911Z,94070.22
2022-09-27T16:31:05.380Z,94073.13
2022-09-27T16:33:38.759Z,94068.63
2022-09-27T16:36:19.363Z,94064.09
2022-09-27T16:38:50.079Z,94067.50
2022-09-27T16:41:19.993Z,94059.41
2022-09-27T16:43:47.756Z,94065.56
2022-09-27T16:46:22.100Z,94066.84
2022-09-27T16:48:49.827Z,94069.75
2022-09-27T16:51:37.213Z,94058.38
2022-09-27T16:54:06.415Z,94050.91
2022-09-27T16:56:36.567Z,94059.66
2022-09-27T16:59:06.552Z,94060.50
2022-09-27T17:01:44.127Z,94071.53
2022-09-27T17:04:12.571Z,94075.41
2022-09-27T17:06:40.160Z,94077.03
2022-09-27T17:09:07.819Z,94091.91
2022-09-27T17:11:36.893Z,94089.94
2022-09-27T17:14:06.153Z,94088.78
2022-09-27T17:16:34.266Z,94093.97
2022-09-27T17:19:04.715Z,94091.81
2022-09-27T17:21:37.107Z,94091.47
2022-09-27T17:24:06.281Z,94098.50
2022-09-27T17:26:41.607Z,94106.28
2022-09-27T17:29:11.775Z,94091.63
2022-09-27T17:31:40.819Z,94102.28
2022-09-27T17:34:25.881Z,94096.59
2022-09-27T17:37:00.739Z,94095.22
2022-09-27T17:39:28.350Z,94100.94
2022-09-27T17:41:55.971Z,94088.66
2022-09-27T17:44:26.862Z,94097.06
2022-09-27T17:47:15.349Z,94088.56
2022-09-27T17:50:00.327Z,94093.03
2022-09-27T17:52:28.610Z,94089.97
2022-09-27T17:54:57.536Z,94100.53
2022-09-27T17:57:25.391Z,94096.50
2022-09-27T17:59:54.491Z,94101.03
2022-09-27T18:02:22.205Z,94115.13
2022-09-27T18:04:50.449Z,94111.50
2022-09-27T18:07:19.692Z,94109.91
2022-09-27T18:09:47.276Z,94116.03
2022-09-27T18:12:15.803Z,94120.94
2022-09-27T18:14:46.059Z,94123.75
2022-09-27T18:17:20.475Z,94129.19
2022-09-27T18:19:48.059Z,94122.50
2022-09-27T18:22:21.786Z,94119.09
2022-09-27T18:24:49.364Z,94107.94
2022-09-27T18:27:18.657Z,94120.00
2022-09-27T18:29:46.267Z,94118.09
2022-09-27T18:32:13.986Z,94129.88
2022-09-27T18:34:42.938Z,94138.25
2022-09-27T18:37:10.549Z,94138.06
2022-09-27T18:39:40.071Z,94134.25
2022-09-27T18:42:08.887Z,94144.94
2022-09-27T18:44:36.618Z,94155.22
2022-09-27T18:47:04.894Z,94149.59
2022-09-27T18:49:34.419Z,94158.88
2022-09-27T18:52:10.191Z,94134.25
2022-09-27T18:54:43.833Z,94149.53
2022-09-27T18:57:11.420Z,94159.63
2022-09-27T18:59:41.224Z,94154.28
2022-09-27T19:02:17.867Z,94159.97
2022-09-27T19:04:45.457Z,94165.03
2022-09-27T19:07:14.441Z,94157.75
2022-09-27T19:09:55.558Z,94163.44
2022-09-27T19:12:26.344Z,94153.19
2022-09-27T19:14:55.623Z,94151.41
2022-09-27T19:17:23.361Z,94165.22
2022-09-27T19:19:53.997Z,94156.59
2022-09-27T19:22:27.764Z,94147.94
2022-09-27T19:24:58.100Z,94161.88
2022-09-27T19:27:25.837Z,94145.41
2022-09-27T19:30:01.718Z,94148.56
2022-09-27T19:32:33.895Z,94150.56
2022-09-27T19:35:01.445Z,94149.63
2022-09-27T19:37:34.643Z,94154.84
2022-09-27T19:40:03.216Z,94153.66
2022-09-27T19:42:33.831Z,94150.25
2022-09-27T19:45:05.799Z,94150.84
2022-09-27T19:47:38.522Z,94146.81
2022-09-27T19:50:09.303Z,94150.44
2022-09-27T19:56:06.571Z,94138.22
2022-09-27T19:58:38.028Z,94148.75
2022-09-27T20:01:11.696Z,94152.81
2022-09-27T20:03:42.448Z,94149.28
2022-09-27T20:06:14.818Z,94147.03
2022-09-27T20:08:46.007Z,94152.44
2022-09-27T20:11:18.898Z,94147.25
2022-09-27T20:13:50.610Z,94144.66
2022-09-27T20:16:22.219Z,94145.31
2022-09-27T20:18:51.691Z,94143.22
2022-09-27T20:21:20.802Z,94142.16
2022-09-27T20:23:49.972Z,94147.25
2022-09-27T20:26:20.362Z,94134.47
2022-09-27T20:28:50.439Z,94139.31
2022-09-27T20:31:20.164Z,94135.22
2022-09-27T20:34:01.862Z,94133.28
2022-09-27T20:36:32.238Z,94128.88
2022-09-27T20:39:05.384Z,94121.75
2022-09-27T20:41:39.087Z,94123.31
2022-09-27T20:44:10.911Z,94129.72
2022-09-27T20:46:42.718Z,94122.25
2022-09-27T20:49:15.683Z,94117.13
2022-09-27T20:51:48.599Z,94122.25
2022-09-27T20:54:16.226Z,94122.25
2022-09-27T20:56:48.698Z,94119.75
2022-09-27T20:59:20.756Z,94116.97
2022-09-27T21:01:53.416Z,94113.81
2022-09-27T21:04:23.679Z,94113.69
2022-09-27T21:06:52.591Z,94115.50
2022-09-27T21:09:20.254Z,94111.34
2022-09-27T21:11:51.677Z,94104.91
2022-09-27T21:14:22.913Z,94118.25
2022-09-27T21:16:52.305Z,94109.31
2022-09-27T21:19:20.274Z,94124.56
2022-09-27T21:21:50.093Z,94108.69
2022-09-27T21:24:17.811Z,94108.69
2022-09-27T21:26:49.223Z,94112.47
2022-09-27T21:29:20.937Z,94111.25
2022-09-27T21:31:51.557Z,94103.09
2022-09-27T21:34:23.425Z,94106.13
2022-09-27T21:36:52.665Z,94116.66
2022-09-27T21:39:20.239Z,94110.09
2022-09-27T21:41:53.799Z,94114.84
2022-09-27T21:44:23.666Z,94108.34
2022-09-27T21:46:54.754Z,94121.63
2022-09-27T21:49:22.346Z,94119.59
2022-09-27T21:51:52.976Z,94119.75
2022-09-27T21:54:23.180Z,94109.88
2022-09-27T21:56:56.267Z,94122.19
2022-09-27T21:59:23.838Z,94120.75
2022-09-27T22:01:51.419Z,94124.94
2022-09-27T22:04:21.769Z,94124.13
2022-09-27T22:06:52.927Z,94131.44
2022-09-27T22:09:22.834Z,94154.19
2022-09-27T22:11:53.016Z,94154.13
2022-09-27T22:14:20.647Z,94133.81
2022-09-27T22:16:50.832Z,94136.78
2022-09-27T22:19:19.392Z,94131.84
2022-09-27T22:21:48.807Z,94141.47
2022-09-27T22:24:20.611Z,94134.81
2022-09-27T22:26:53.819Z,94136.41
2022-09-27T22:29:25.019Z,94125.22
2022-09-27T22:31:54.870Z,94126.59
2022-09-27T22:34:28.776Z,94114.50
2022-09-27T22:37:00.848Z,94114.13
2022-09-27T22:39:31.211Z,94124.22
2022-09-27T22:41:58.855Z,94125.75
2022-09-27T22:44:31.432Z,94117.75
2022-09-27T22:47:00.924Z,94111.38
2022-09-27T22:49:30.575Z,94110.72
2022-09-27T22:51:58.118Z,94107.22
2022-09-27T22:54:25.670Z,94091.44
2022-09-27T22:56:57.103Z,94093.50
2022-09-27T22:59:28.162Z,94091.56
2022-09-27T23:01:58.493Z,94096.09
2022-09-27T23:04:26.173Z,94090.00
2022-09-27T23:06:56.107Z,94092.91
2022-09-27T23:09:24.599Z,94093.22
2022-09-27T23:11:55.713Z,94094.06
2022-09-27T23:14:26.122Z,94094.38
2022-09-27T23:16:57.600Z,94084.56
2022-09-27T23:19:30.121Z,94089.28
2022-09-27T23:21:59.770Z,94078.44
2022-09-27T23:24:27.364Z,94069.84
2022-09-27T23:27:13.071Z,94075.19
2022-09-27T23:29:43.549Z,94076.00
2022-09-27T23:32:11.185Z,94076.59
2022-09-27T23:34:42.341Z,94072.84
2022-09-27T23:37:12.928Z,94066.53
2022-09-27T23:39:40.565Z,94057.28
2022-09-27T23:42:11.173Z,94054.56
2022-09-27T23:44:39.952Z,94055.34
2022-09-27T23:47:07.671Z,94053.28
2022-09-27T23:49:36.972Z,94053.78
2022-09-27T23:52:08.410Z,94052.00
2022-09-27T23:54:37.297Z,94046.00
2022-09-27T23:57:04.905Z,94040.31
2022-09-27T23:59:33.854Z,94041.31
